Salvador Maria, Argentina
Current Conditions -  °F | °C
As of 12:00 PM on Saturday 25 Oct 2014 (Local Time) from SAEZ Reporting Station
Clear Clear  
Wind Chill: 84°   Ceiling: Unl
Heat Index: 86°   Visibility: 6mi
Dew Point: 64°   Wind: 2mph
Humidity: 51%   Direction: 90°E
Pressure: 29.94"   Gusts: NA
Location:  35.31°S, 59.17°W
Report Text: SAEZ 251500Z 09002KT 320V130 CAVOK 29/18 Q1014
Loading
Personal Weather Stations






























Interactive Weather Map
Tropical Storm Tracking
New forecast layout! Learn more

10-Day Weather Forecast

Advertisements
Track Severe Weather on mobile